sensor_id;sensor_type;location;lat;lon;timestamp;P1;durP1;ratioP1;P2;durP2;ratioP2
66487;SDS011;53304;54.550;18.526;2023-07-16T00:02:10;4.75;;;2.58;;
66487;SDS011;53304;54.550;18.526;2023-07-16T00:04:42;5.07;;;2.58;;
66487;SDS011;53304;54.550;18.526;2023-07-16T00:07:12;5.13;;;2.38;;
66487;SDS011;53304;54.550;18.526;2023-07-16T00:09:41;5.57;;;2.88;;
66487;SDS011;53304;54.550;18.526;2023-07-16T00:12:06;5.63;;;2.80;;
66487;SDS011;53304;54.550;18.526;2023-07-16T00:14:34;4.25;;;2.55;;
66487;SDS011;53304;54.550;18.526;2023-07-16T00:17:04;4.00;;;2.53;;
66487;SDS011;53304;54.550;18.526;2023-07-16T00:19:32;6.05;;;3.10;;
66487;SDS011;53304;54.550;18.526;2023-07-16T00:21:57;9.70;;;3.05;;
66487;SDS011;53304;54.550;18.526;2023-07-16T00:24:23;5.03;;;2.72;;
66487;SDS011;53304;54.550;18.526;2023-07-16T00:26:48;4.80;;;2.60;;
66487;SDS011;53304;54.550;18.526;2023-07-16T00:29:13;12.25;;;3.00;;
66487;SDS011;53304;54.550;18.526;2023-07-16T00:31:39;9.02;;;2.67;;
66487;SDS011;53304;54.550;18.526;2023-07-16T00:34:04;7.20;;;2.85;;
66487;SDS011;53304;54.550;18.526;2023-07-16T00:36:30;4.18;;;2.63;;
66487;SDS011;53304;54.550;18.526;2023-07-16T00:38:58;4.85;;;2.65;;
66487;SDS011;53304;54.550;18.526;2023-07-16T00:41:23;7.80;;;2.80;;
66487;SDS011;53304;54.550;18.526;2023-07-16T00:43:51;6.28;;;2.70;;
66487;SDS011;53304;54.550;18.526;2023-07-16T00:46:19;6.55;;;2.90;;
66487;SDS011;53304;54.550;18.526;2023-07-16T00:48:45;5.13;;;2.60;;
66487;SDS011;53304;54.550;18.526;2023-07-16T00:51:13;3.65;;;2.58;;
66487;SDS011;53304;54.550;18.526;2023-07-16T00:53:39;4.32;;;2.30;;
66487;SDS011;53304;54.550;18.526;2023-07-16T00:56:07;9.55;;;2.80;;
66487;SDS011;53304;54.550;18.526;2023-07-16T00:58:33;4.28;;;2.70;;
66487;SDS011;53304;54.550;18.526;2023-07-16T01:03:55;4.80;;;2.58;;
66487;SDS011;53304;54.550;18.526;2023-07-16T01:06:37;4.32;;;2.47;;
66487;SDS011;53304;54.550;18.526;2023-07-16T01:11:33;4.85;;;2.70;;
66487;SDS011;53304;54.550;18.526;2023-07-16T01:14:01;8.82;;;3.13;;
66487;SDS011;53304;54.550;18.526;2023-07-16T01:16:29;5.35;;;2.63;;
66487;SDS011;53304;54.550;18.526;2023-07-16T01:18:57;4.60;;;2.60;;
66487;SDS011;53304;54.550;18.526;2023-07-16T01:21:23;4.70;;;2.55;;
66487;SDS011;53304;54.550;18.526;2023-07-16T01:26:36;4.90;;;2.58;;
66487;SDS011;53304;54.550;18.526;2023-07-16T01:31:39;4.30;;;2.67;;
66487;SDS011;53304;54.550;18.526;2023-07-16T01:34:13;5.03;;;2.85;;
66487;SDS011;53304;54.550;18.526;2023-07-16T01:36:44;4.68;;;2.42;;
66487;SDS011;53304;54.550;18.526;2023-07-16T01:39:12;5.15;;;2.60;;
66487;SDS011;53304;54.550;18.526;2023-07-16T01:41:40;8.80;;;3.20;;
66487;SDS011;53304;54.550;18.526;2023-07-16T01:44:05;5.68;;;2.90;;
66487;SDS011;53304;54.550;18.526;2023-07-16T01:46:33;4.20;;;2.60;;
66487;SDS011;53304;54.550;18.526;2023-07-16T01:48:59;4.80;;;2.58;;
66487;SDS011;53304;54.550;18.526;2023-07-16T01:51:27;5.38;;;2.78;;
66487;SDS011;53304;54.550;18.526;2023-07-16T01:53:52;3.95;;;2.63;;
66487;SDS011;53304;54.550;18.526;2023-07-16T01:56:17;4.90;;;2.60;;
66487;SDS011;53304;54.550;18.526;2023-07-16T01:58:45;5.88;;;2.92;;
66487;SDS011;53304;54.550;18.526;2023-07-16T02:01:15;4.85;;;2.80;;
66487;SDS011;53304;54.550;18.526;2023-07-16T02:03:41;4.75;;;2.70;;
66487;SDS011;53304;54.550;18.526;2023-07-16T02:06:06;4.68;;;2.58;;
66487;SDS011;53304;54.550;18.526;2023-07-16T02:08:31;4.95;;;2.85;;
66487;SDS011;53304;54.550;18.526;2023-07-16T02:10:59;5.05;;;2.78;;
66487;SDS011;53304;54.550;18.526;2023-07-16T02:13:29;6.60;;;2.78;;
66487;SDS011;53304;54.550;18.526;2023-07-16T02:15:57;5.88;;;2.83;;
66487;SDS011;53304;54.550;18.526;2023-07-16T02:18:23;5.28;;;2.83;;
66487;SDS011;53304;54.550;18.526;2023-07-16T02:20:50;5.43;;;3.00;;
66487;SDS011;53304;54.550;18.526;2023-07-16T02:23:18;5.07;;;2.88;;
66487;SDS011;53304;54.550;18.526;2023-07-16T02:25:46;5.15;;;2.65;;
66487;SDS011;53304;54.550;18.526;2023-07-16T02:28:17;4.35;;;2.70;;
66487;SDS011;53304;54.550;18.526;2023-07-16T02:30:42;10.20;;;2.95;;
66487;SDS011;53304;54.550;18.526;2023-07-16T02:33:08;6.75;;;2.60;;
66487;SDS011;53304;54.550;18.526;2023-07-16T02:35:36;6.07;;;3.00;;
66487;SDS011;53304;54.550;18.526;2023-07-16T02:38:01;5.75;;;3.40;;
66487;SDS011;53304;54.550;18.526;2023-07-16T02:40:29;4.82;;;2.85;;
66487;SDS011;53304;54.550;18.526;2023-07-16T02:42:59;5.68;;;2.67;;
66487;SDS011;53304;54.550;18.526;2023-07-16T02:45:24;5.47;;;2.97;;
66487;SDS011;53304;54.550;18.526;2023-07-16T02:47:50;4.65;;;3.25;;
66487;SDS011;53304;54.550;18.526;2023-07-16T02:50:20;5.18;;;2.72;;
66487;SDS011;53304;54.550;18.526;2023-07-16T02:52:48;4.15;;;2.80;;
66487;SDS011;53304;54.550;18.526;2023-07-16T02:55:15;4.38;;;2.83;;
66487;SDS011;53304;54.550;18.526;2023-07-16T02:57:43;5.43;;;3.22;;
66487;SDS011;53304;54.550;18.526;2023-07-16T03:00:11;4.35;;;2.67;;
66487;SDS011;53304;54.550;18.526;2023-07-16T03:02:39;5.78;;;3.15;;
66487;SDS011;53304;54.550;18.526;2023-07-16T03:05:05;6.10;;;3.08;;
66487;SDS011;53304;54.550;18.526;2023-07-16T03:07:30;5.07;;;3.10;;
66487;SDS011;53304;54.550;18.526;2023-07-16T03:09:56;5.15;;;2.97;;
66487;SDS011;53304;54.550;18.526;2023-07-16T03:12:21;5.28;;;3.08;;
66487;SDS011;53304;54.550;18.526;2023-07-16T03:14:49;4.65;;;2.97;;
66487;SDS011;53304;54.550;18.526;2023-07-16T03:17:18;5.10;;;2.83;;
66487;SDS011;53304;54.550;18.526;2023-07-16T03:19:48;5.30;;;2.95;;
66487;SDS011;53304;54.550;18.526;2023-07-16T03:22:16;5.18;;;2.80;;
66487;SDS011;53304;54.550;18.526;2023-07-16T03:24:44;4.90;;;3.28;;
66487;SDS011;53304;54.550;18.526;2023-07-16T03:27:10;5.15;;;2.90;;
66487;SDS011;53304;54.550;18.526;2023-07-16T03:29:35;5.18;;;2.97;;
66487;SDS011;53304;54.550;18.526;2023-07-16T03:32:03;4.88;;;3.10;;
66487;SDS011;53304;54.550;18.526;2023-07-16T03:34:28;5.20;;;3.20;;
66487;SDS011;53304;54.550;18.526;2023-07-16T03:36:56;5.13;;;3.13;;
66487;SDS011;53304;54.550;18.526;2023-07-16T03:39:22;4.55;;;3.10;;
66487;SDS011;53304;54.550;18.526;2023-07-16T03:41:47;5.32;;;3.38;;
66487;SDS011;53304;54.550;18.526;2023-07-16T03:44:15;6.03;;;3.17;;
66487;SDS011;53304;54.550;18.526;2023-07-16T03:46:46;5.95;;;3.15;;
66487;SDS011;53304;54.550;18.526;2023-07-16T03:49:14;4.90;;;3.17;;
66487;SDS011;53304;54.550;18.526;2023-07-16T03:51:39;4.85;;;3.20;;
66487;SDS011;53304;54.550;18.526;2023-07-16T03:54:04;6.32;;;3.53;;
66487;SDS011;53304;54.550;18.526;2023-07-16T03:56:30;4.88;;;2.97;;
66487;SDS011;53304;54.550;18.526;2023-07-16T03:58:55;5.22;;;3.10;;
66487;SDS011;53304;54.550;18.526;2023-07-16T04:01:23;8.15;;;3.30;;
66487;SDS011;53304;54.550;18.526;2023-07-16T04:03:51;5.30;;;3.03;;
66487;SDS011;53304;54.550;18.526;2023-07-16T04:06:16;4.30;;;3.10;;
66487;SDS011;53304;54.550;18.526;2023-07-16T04:08:42;6.18;;;3.15;;
66487;SDS011;53304;54.550;18.526;2023-07-16T04:11:09;6.10;;;3.00;;
66487;SDS011;53304;54.550;18.526;2023-07-16T04:13:35;5.78;;;3.40;;
66487;SDS011;53304;54.550;18.526;2023-07-16T04:16:00;5.72;;;3.17;;
66487;SDS011;53304;54.550;18.526;2023-07-16T04:18:26;5.60;;;3.00;;
66487;SDS011;53304;54.550;18.526;2023-07-16T04:20:56;5.88;;;3.10;;
66487;SDS011;53304;54.550;18.526;2023-07-16T04:23:22;5.63;;;3.10;;
66487;SDS011;53304;54.550;18.526;2023-07-16T04:25:50;5.63;;;3.05;;
66487;SDS011;53304;54.550;18.526;2023-07-16T04:28:16;7.82;;;3.10;;
66487;SDS011;53304;54.550;18.526;2023-07-16T04:30:42;6.18;;;3.00;;
66487;SDS011;53304;54.550;18.526;2023-07-16T04:33:07;14.05;;;3.67;;
66487;SDS011;53304;54.550;18.526;2023-07-16T04:35:35;5.88;;;3.30;;
66487;SDS011;53304;54.550;18.526;2023-07-16T04:38:00;5.15;;;2.85;;
66487;SDS011;53304;54.550;18.526;2023-07-16T04:40:25;6.60;;;3.17;;
66487;SDS011;53304;54.550;18.526;2023-07-16T04:42:53;5.90;;;3.25;;
66487;SDS011;53304;54.550;18.526;2023-07-16T04:45:19;4.55;;;2.92;;
66487;SDS011;53304;54.550;18.526;2023-07-16T04:47:44;7.18;;;3.20;;
66487;SDS011;53304;54.550;18.526;2023-07-16T04:50:14;6.88;;;3.30;;
66487;SDS011;53304;54.550;18.526;2023-07-16T04:52:40;4.82;;;3.08;;
66487;SDS011;53304;54.550;18.526;2023-07-16T04:55:10;6.22;;;3.35;;
66487;SDS011;53304;54.550;18.526;2023-07-16T04:57:37;7.22;;;3.45;;
66487;SDS011;53304;54.550;18.526;2023-07-16T05:00:02;11.88;;;3.95;;
66487;SDS011;53304;54.550;18.526;2023-07-16T05:02:31;9.75;;;3.80;;
66487;SDS011;53304;54.550;18.526;2023-07-16T05:04:56;8.77;;;4.50;;
66487;SDS011;53304;54.550;18.526;2023-07-16T05:07:24;8.50;;;4.60;;
66487;SDS011;53304;54.550;18.526;2023-07-16T05:09:52;10.68;;;4.72;;
66487;SDS011;53304;54.550;18.526;2023-07-16T05:12:20;8.43;;;5.00;;
66487;SDS011;53304;54.550;18.526;2023-07-16T05:14:46;7.68;;;4.63;;
66487;SDS011;53304;54.550;18.526;2023-07-16T05:17:16;7.15;;;5.13;;
66487;SDS011;53304;54.550;18.526;2023-07-16T05:19:43;13.10;;;4.95;;
66487;SDS011;53304;54.550;18.526;2023-07-16T05:22:09;10.23;;;4.80;;
66487;SDS011;53304;54.550;18.526;2023-07-16T05:24:37;13.85;;;5.30;;
66487;SDS011;53304;54.550;18.526;2023-07-16T05:27:05;8.02;;;5.50;;
66487;SDS011;53304;54.550;18.526;2023-07-16T05:29:33;7.38;;;5.07;;
66487;SDS011;53304;54.550;18.526;2023-07-16T05:31:58;6.80;;;4.55;;
66487;SDS011;53304;54.550;18.526;2023-07-16T05:34:28;9.32;;;4.82;;
66487;SDS011;53304;54.550;18.526;2023-07-16T05:36:59;7.18;;;5.20;;
66487;SDS011;53304;54.550;18.526;2023-07-16T05:39:25;7.88;;;5.15;;
66487;SDS011;53304;54.550;18.526;2023-07-16T05:41:53;8.20;;;4.70;;
66487;SDS011;53304;54.550;18.526;2023-07-16T05:44:21;10.43;;;5.72;;
66487;SDS011;53304;54.550;18.526;2023-07-16T05:46:49;11.57;;;5.32;;
66487;SDS011;53304;54.550;18.526;2023-07-16T05:49:14;11.10;;;5.97;;
66487;SDS011;53304;54.550;18.526;2023-07-16T05:51:47;9.35;;;5.47;;
66487;SDS011;53304;54.550;18.526;2023-07-16T05:54:15;8.13;;;5.28;;
66487;SDS011;53304;54.550;18.526;2023-07-16T05:56:43;8.60;;;5.38;;
66487;SDS011;53304;54.550;18.526;2023-07-16T05:59:10;9.18;;;5.22;;
66487;SDS011;53304;54.550;18.526;2023-07-16T06:01:36;7.38;;;5.07;;
66487;SDS011;53304;54.550;18.526;2023-07-16T06:04:01;9.98;;;5.75;;
66487;SDS011;53304;54.550;18.526;2023-07-16T06:06:29;8.43;;;4.85;;
66487;SDS011;53304;54.550;18.526;2023-07-16T06:08:55;9.35;;;5.53;;
66487;SDS011;53304;54.550;18.526;2023-07-16T06:11:23;11.48;;;5.40;;
66487;SDS011;53304;54.550;18.526;2023-07-16T06:13:52;8.38;;;4.97;;
66487;SDS011;53304;54.550;18.526;2023-07-16T06:16:18;7.60;;;4.90;;
66487;SDS011;53304;54.550;18.526;2023-07-16T06:18:49;8.35;;;5.28;;
66487;SDS011;53304;54.550;18.526;2023-07-16T06:21:14;9.23;;;5.18;;
66487;SDS011;53304;54.550;18.526;2023-07-16T06:23:39;7.55;;;4.40;;
66487;SDS011;53304;54.550;18.526;2023-07-16T06:26:07;11.68;;;4.80;;
66487;SDS011;53304;54.550;18.526;2023-07-16T06:28:33;9.50;;;4.85;;
66487;SDS011;53304;54.550;18.526;2023-07-16T06:31:00;10.48;;;4.60;;
66487;SDS011;53304;54.550;18.526;2023-07-16T06:33:26;6.35;;;4.50;;
66487;SDS011;53304;54.550;18.526;2023-07-16T06:35:53;12.80;;;4.60;;
66487;SDS011;53304;54.550;18.526;2023-07-16T06:38:19;6.75;;;4.45;;
66487;SDS011;53304;54.550;18.526;2023-07-16T06:40:48;8.57;;;4.53;;
66487;SDS011;53304;54.550;18.526;2023-07-16T06:43:14;7.28;;;4.60;;
66487;SDS011;53304;54.550;18.526;2023-07-16T06:45:40;7.57;;;4.88;;
66487;SDS011;53304;54.550;18.526;2023-07-16T06:48:05;6.32;;;4.57;;
66487;SDS011;53304;54.550;18.526;2023-07-16T06:50:31;8.57;;;4.63;;
66487;SDS011;53304;54.550;18.526;2023-07-16T06:52:58;8.90;;;4.70;;
66487;SDS011;53304;54.550;18.526;2023-07-16T06:55:26;7.85;;;4.90;;
66487;SDS011;53304;54.550;18.526;2023-07-16T06:57:57;7.38;;;4.40;;
66487;SDS011;53304;54.550;18.526;2023-07-16T07:00:22;8.35;;;4.93;;
66487;SDS011;53304;54.550;18.526;2023-07-16T07:02:50;6.35;;;4.43;;
66487;SDS011;53304;54.550;18.526;2023-07-16T07:05:15;7.68;;;4.95;;
66487;SDS011;53304;54.550;18.526;2023-07-16T07:07:43;7.13;;;4.68;;
66487;SDS011;53304;54.550;18.526;2023-07-16T07:10:13;5.72;;;4.53;;
66487;SDS011;53304;54.550;18.526;2023-07-16T07:12:39;7.47;;;4.40;;
66487;SDS011;53304;54.550;18.526;2023-07-16T07:15:05;7.78;;;4.30;;
66487;SDS011;53304;54.550;18.526;2023-07-16T07:17:31;7.90;;;4.68;;
66487;SDS011;53304;54.550;18.526;2023-07-16T07:19:57;8.13;;;4.93;;
66487;SDS011;53304;54.550;18.526;2023-07-16T07:22:22;6.18;;;4.57;;
66487;SDS011;53304;54.550;18.526;2023-07-16T07:24:48;6.15;;;4.70;;
66487;SDS011;53304;54.550;18.526;2023-07-16T07:27:16;6.78;;;4.40;;
66487;SDS011;53304;54.550;18.526;2023-07-16T07:29:42;5.70;;;3.95;;
66487;SDS011;53304;54.550;18.526;2023-07-16T07:32:07;7.55;;;4.40;;
66487;SDS011;53304;54.550;18.526;2023-07-16T07:34:41;7.45;;;4.20;;
66487;SDS011;53304;54.550;18.526;2023-07-16T07:37:06;6.78;;;4.15;;
66487;SDS011;53304;54.550;18.526;2023-07-16T07:39:34;6.18;;;3.80;;
66487;SDS011;53304;54.550;18.526;2023-07-16T07:41:59;5.60;;;3.88;;
66487;SDS011;53304;54.550;18.526;2023-07-16T07:44:27;5.30;;;3.90;;
66487;SDS011;53304;54.550;18.526;2023-07-16T07:46:54;7.32;;;4.05;;
66487;SDS011;53304;54.550;18.526;2023-07-16T07:49:22;5.65;;;4.00;;
66487;SDS011;53304;54.550;18.526;2023-07-16T07:51:47;6.85;;;4.13;;
66487;SDS011;53304;54.550;18.526;2023-07-16T07:54:16;7.57;;;3.80;;
66487;SDS011;53304;54.550;18.526;2023-07-16T07:56:47;6.15;;;3.97;;
66487;SDS011;53304;54.550;18.526;2023-07-16T07:59:14;7.28;;;4.20;;
66487;SDS011;53304;54.550;18.526;2023-07-16T08:01:40;6.82;;;3.92;;
66487;SDS011;53304;54.550;18.526;2023-07-16T08:04:05;9.40;;;4.13;;
66487;SDS011;53304;54.550;18.526;2023-07-16T08:06:31;7.75;;;4.07;;
66487;SDS011;53304;54.550;18.526;2023-07-16T08:09:01;5.82;;;3.65;;
66487;SDS011;53304;54.550;18.526;2023-07-16T08:11:29;6.72;;;3.70;;
66487;SDS011;53304;54.550;18.526;2023-07-16T08:13:57;7.97;;;3.67;;
66487;SDS011;53304;54.550;18.526;2023-07-16T08:16:25;7.53;;;3.50;;
66487;SDS011;53304;54.550;18.526;2023-07-16T08:18:50;5.68;;;3.60;;
66487;SDS011;53304;54.550;18.526;2023-07-16T08:21:18;5.35;;;3.63;;
66487;SDS011;53304;54.550;18.526;2023-07-16T08:23:47;4.93;;;3.25;;
66487;SDS011;53304;54.550;18.526;2023-07-16T08:26:17;6.05;;;3.30;;
66487;SDS011;53304;54.550;18.526;2023-07-16T08:28:43;5.60;;;3.45;;
66487;SDS011;53304;54.550;18.526;2023-07-16T08:31:11;5.38;;;3.40;;
66487;SDS011;53304;54.550;18.526;2023-07-16T08:33:37;4.63;;;3.00;;
66487;SDS011;53304;54.550;18.526;2023-07-16T08:36:06;6.95;;;3.30;;
66487;SDS011;53304;54.550;18.526;2023-07-16T08:38:34;5.10;;;3.15;;
66487;SDS011;53304;54.550;18.526;2023-07-16T08:41:01;6.57;;;3.17;;
66487;SDS011;53304;54.550;18.526;2023-07-16T08:43:29;5.47;;;3.00;;
66487;SDS011;53304;54.550;18.526;2023-07-16T08:46:00;5.38;;;2.88;;
66487;SDS011;53304;54.550;18.526;2023-07-16T08:48:26;4.70;;;2.90;;
66487;SDS011;53304;54.550;18.526;2023-07-16T08:50:55;5.05;;;2.85;;
66487;SDS011;53304;54.550;18.526;2023-07-16T08:53:23;5.15;;;2.90;;
66487;SDS011;53304;54.550;18.526;2023-07-16T08:55:48;7.05;;;2.83;;
66487;SDS011;53304;54.550;18.526;2023-07-16T08:58:14;4.63;;;3.00;;
66487;SDS011;53304;54.550;18.526;2023-07-16T09:00:42;5.03;;;2.90;;
66487;SDS011;53304;54.550;18.526;2023-07-16T09:03:10;4.90;;;2.83;;
66487;SDS011;53304;54.550;18.526;2023-07-16T09:05:37;6.32;;;3.10;;
66487;SDS011;53304;54.550;18.526;2023-07-16T09:08:04;5.15;;;2.95;;
66487;SDS011;53304;54.550;18.526;2023-07-16T09:10:29;5.68;;;3.10;;
66487;SDS011;53304;54.550;18.526;2023-07-16T09:12:58;3.85;;;2.50;;
66487;SDS011;53304;54.550;18.526;2023-07-16T09:15:24;4.82;;;2.80;;
66487;SDS011;53304;54.550;18.526;2023-07-16T09:17:53;8.23;;;2.90;;
66487;SDS011;53304;54.550;18.526;2023-07-16T09:20:20;8.57;;;2.67;;
66487;SDS011;53304;54.550;18.526;2023-07-16T09:22:47;4.93;;;2.90;;
66487;SDS011;53304;54.550;18.526;2023-07-16T09:25:17;5.30;;;2.95;;
66487;SDS011;53304;54.550;18.526;2023-07-16T09:27:47;8.10;;;2.97;;
66487;SDS011;53304;54.550;18.526;2023-07-16T09:30:14;4.53;;;2.77;;
66487;SDS011;53304;54.550;18.526;2023-07-16T09:32:44;5.38;;;2.60;;
66487;SDS011;53304;54.550;18.526;2023-07-16T09:35:15;5.63;;;2.90;;
66487;SDS011;53304;54.550;18.526;2023-07-16T09:37:44;7.47;;;2.90;;
66487;SDS011;53304;54.550;18.526;2023-07-16T09:40:14;4.03;;;2.70;;
66487;SDS011;53304;54.550;18.526;2023-07-16T09:42:40;5.35;;;2.80;;
66487;SDS011;53304;54.550;18.526;2023-07-16T09:45:07;5.95;;;2.83;;
66487;SDS011;53304;54.550;18.526;2023-07-16T09:47:41;6.15;;;2.80;;
66487;SDS011;53304;54.550;18.526;2023-07-16T09:50:14;5.43;;;3.00;;
66487;SDS011;53304;54.550;18.526;2023-07-16T09:52:42;7.63;;;3.05;;
66487;SDS011;53304;54.550;18.526;2023-07-16T09:55:10;4.88;;;2.88;;
66487;SDS011;53304;54.550;18.526;2023-07-16T09:57:39;4.07;;;2.55;;
66487;SDS011;53304;54.550;18.526;2023-07-16T10:00:09;6.20;;;2.97;;
66487;SDS011;53304;54.550;18.526;2023-07-16T10:02:39;5.05;;;2.92;;
66487;SDS011;53304;54.550;18.526;2023-07-16T10:05:14;5.50;;;2.72;;
66487;SDS011;53304;54.550;18.526;2023-07-16T10:07:41;4.30;;;2.70;;
66487;SDS011;53304;54.550;18.526;2023-07-16T10:10:07;4.55;;;2.60;;
66487;SDS011;53304;54.550;18.526;2023-07-16T10:12:34;4.03;;;2.80;;
66487;SDS011;53304;54.550;18.526;2023-07-16T10:15:00;5.90;;;2.80;;
66487;SDS011;53304;54.550;18.526;2023-07-16T10:17:29;6.45;;;3.00;;
66487;SDS011;53304;54.550;18.526;2023-07-16T10:19:57;4.30;;;2.55;;
66487;SDS011;53304;54.550;18.526;2023-07-16T10:25:07;4.32;;;2.40;;
66487;SDS011;53304;54.550;18.526;2023-07-16T10:27:33;5.60;;;2.97;;
66487;SDS011;53304;54.550;18.526;2023-07-16T10:30:02;5.10;;;2.70;;
66487;SDS011;53304;54.550;18.526;2023-07-16T10:32:31;5.00;;;3.00;;
66487;SDS011;53304;54.550;18.526;2023-07-16T10:35:00;5.50;;;2.80;;
66487;SDS011;53304;54.550;18.526;2023-07-16T10:37:25;5.10;;;3.00;;
66487;SDS011;53304;54.550;18.526;2023-07-16T10:39:54;5.32;;;2.78;;
66487;SDS011;53304;54.550;18.526;2023-07-16T10:42:20;5.22;;;2.70;;
66487;SDS011;53304;54.550;18.526;2023-07-16T10:44:50;3.42;;;2.25;;
66487;SDS011;53304;54.550;18.526;2023-07-16T10:47:21;5.07;;;2.80;;
66487;SDS011;53304;54.550;18.526;2023-07-16T10:49:51;4.63;;;2.80;;
66487;SDS011;53304;54.550;18.526;2023-07-16T10:52:20;4.20;;;2.67;;
66487;SDS011;53304;54.550;18.526;2023-07-16T10:54:47;3.72;;;2.40;;
66487;SDS011;53304;54.550;18.526;2023-07-16T10:57:19;5.00;;;2.60;;
66487;SDS011;53304;54.550;18.526;2023-07-16T10:59:45;4.57;;;2.38;;
66487;SDS011;53304;54.550;18.526;2023-07-16T11:02:12;3.65;;;2.38;;
66487;SDS011;53304;54.550;18.526;2023-07-16T11:04:41;6.90;;;2.72;;
66487;SDS011;53304;54.550;18.526;2023-07-16T11:07:12;4.28;;;2.47;;
66487;SDS011;53304;54.550;18.526;2023-07-16T11:09:46;3.75;;;2.35;;
66487;SDS011;53304;54.550;18.526;2023-07-16T11:12:19;4.38;;;2.65;;
66487;SDS011;53304;54.550;18.526;2023-07-16T11:14:49;5.82;;;2.45;;
66487;SDS011;53304;54.550;18.526;2023-07-16T11:17:18;3.80;;;2.20;;
66487;SDS011;53304;54.550;18.526;2023-07-16T11:19:50;4.30;;;2.42;;
66487;SDS011;53304;54.550;18.526;2023-07-16T11:22:30;4.57;;;2.83;;
66487;SDS011;53304;54.550;18.526;2023-07-16T11:24:55;4.72;;;2.50;;
66487;SDS011;53304;54.550;18.526;2023-07-16T11:27:25;4.47;;;2.38;;
66487;SDS011;53304;54.550;18.526;2023-07-16T11:29:54;5.50;;;2.38;;
66487;SDS011;53304;54.550;18.526;2023-07-16T11:35:05;4.00;;;2.45;;
66487;SDS011;53304;54.550;18.526;2023-07-16T11:37:33;3.60;;;2.20;;
66487;SDS011;53304;54.550;18.526;2023-07-16T11:40:05;4.75;;;2.42;;
66487;SDS011;53304;54.550;18.526;2023-07-16T11:42:36;4.57;;;2.30;;
66487;SDS011;53304;54.550;18.526;2023-07-16T11:45:03;4.97;;;2.20;;
66487;SDS011;53304;54.550;18.526;2023-07-16T11:47:29;4.57;;;2.33;;
66487;SDS011;53304;54.550;18.526;2023-07-16T11:49:57;5.72;;;2.42;;
66487;SDS011;53304;54.550;18.526;2023-07-16T11:52:24;4.63;;;2.50;;
66487;SDS011;53304;54.550;18.526;2023-07-16T11:54:51;5.53;;;2.33;;
66487;SDS011;53304;54.550;18.526;2023-07-16T11:57:19;5.07;;;2.63;;
66487;SDS011;53304;54.550;18.526;2023-07-16T11:59:47;3.17;;;2.10;;
66487;SDS011;53304;54.550;18.526;2023-07-16T12:02:13;5.18;;;2.35;;
66487;SDS011;53304;54.550;18.526;2023-07-16T12:04:41;4.07;;;2.47;;
66487;SDS011;53304;54.550;18.526;2023-07-16T12:07:08;4.53;;;1.95;;
66487;SDS011;53304;54.550;18.526;2023-07-16T12:09:38;3.80;;;2.28;;
66487;SDS011;53304;54.550;18.526;2023-07-16T12:12:06;2.25;;;1.77;;
66487;SDS011;53304;54.550;18.526;2023-07-16T12:14:32;5.60;;;2.10;;
66487;SDS011;53304;54.550;18.526;2023-07-16T12:17:00;3.25;;;1.83;;
66487;SDS011;53304;54.550;18.526;2023-07-16T12:19:25;8.05;;;2.10;;
66487;SDS011;53304;54.550;18.526;2023-07-16T12:21:51;3.92;;;1.70;;
66487;SDS011;53304;54.550;18.526;2023-07-16T12:24:21;4.85;;;2.10;;
66487;SDS011;53304;54.550;18.526;2023-07-16T12:26:49;3.70;;;1.75;;
66487;SDS011;53304;54.550;18.526;2023-07-16T12:29:17;4.18;;;2.17;;
66487;SDS011;53304;54.550;18.526;2023-07-16T12:31:44;4.05;;;1.90;;
66487;SDS011;53304;54.550;18.526;2023-07-16T12:34:13;3.97;;;1.90;;
66487;SDS011;53304;54.550;18.526;2023-07-16T12:36:41;3.10;;;1.80;;
66487;SDS011;53304;54.550;18.526;2023-07-16T12:39:06;3.53;;;1.70;;
66487;SDS011;53304;54.550;18.526;2023-07-16T12:41:31;6.03;;;2.00;;
66487;SDS011;53304;54.550;18.526;2023-07-16T12:43:57;5.03;;;2.00;;
66487;SDS011;53304;54.550;18.526;2023-07-16T12:46:24;5.85;;;1.90;;
66487;SDS011;53304;54.550;18.526;2023-07-16T12:48:52;5.53;;;1.95;;
66487;SDS011;53304;54.550;18.526;2023-07-16T12:51:17;4.32;;;1.80;;
66487;SDS011;53304;54.550;18.526;2023-07-16T12:53:43;5.90;;;2.10;;
66487;SDS011;53304;54.550;18.526;2023-07-16T12:56:09;3.63;;;2.25;;
66487;SDS011;53304;54.550;18.526;2023-07-16T12:58:34;2.35;;;1.60;;
66487;SDS011;53304;54.550;18.526;2023-07-16T13:01:02;3.20;;;1.70;;
66487;SDS011;53304;54.550;18.526;2023-07-16T13:03:30;2.83;;;1.65;;
66487;SDS011;53304;54.550;18.526;2023-07-16T13:05:58;3.05;;;1.77;;
66487;SDS011;53304;54.550;18.526;2023-07-16T13:08:23;2.67;;;1.50;;
66487;SDS011;53304;54.550;18.526;2023-07-16T13:10:49;3.95;;;1.80;;
66487;SDS011;53304;54.550;18.526;2023-07-16T13:13:17;2.72;;;1.70;;
66487;SDS011;53304;54.550;18.526;2023-07-16T13:15:42;3.45;;;1.73;;
66487;SDS011;53304;54.550;18.526;2023-07-16T13:18:09;2.78;;;1.50;;
66487;SDS011;53304;54.550;18.526;2023-07-16T13:20:35;2.90;;;1.80;;
66487;SDS011;53304;54.550;18.526;2023-07-16T13:23:00;3.38;;;1.58;;
66487;SDS011;53304;54.550;18.526;2023-07-16T13:25:28;4.80;;;1.90;;
66487;SDS011;53304;54.550;18.526;2023-07-16T13:27:55;2.63;;;1.50;;
66487;SDS011;53304;54.550;18.526;2023-07-16T13:30:23;4.22;;;1.48;;
66487;SDS011;53304;54.550;18.526;2023-07-16T13:32:51;2.80;;;1.77;;
66487;SDS011;53304;54.550;18.526;2023-07-16T13:35:22;2.50;;;1.60;;
66487;SDS011;53304;54.550;18.526;2023-07-16T13:37:47;4.05;;;1.70;;
66487;SDS011;53304;54.550;18.526;2023-07-16T13:40:15;4.45;;;1.73;;
66487;SDS011;53304;54.550;18.526;2023-07-16T13:42:46;3.03;;;1.40;;
66487;SDS011;53304;54.550;18.526;2023-07-16T13:45:12;4.32;;;1.70;;
66487;SDS011;53304;54.550;18.526;2023-07-16T13:47:38;1.88;;;1.30;;
66487;SDS011;53304;54.550;18.526;2023-07-16T13:50:08;3.80;;;1.90;;
66487;SDS011;53304;54.550;18.526;2023-07-16T13:52:34;3.55;;;1.70;;
66487;SDS011;53304;54.550;18.526;2023-07-16T13:55:02;3.70;;;1.40;;
66487;SDS011;53304;54.550;18.526;2023-07-16T13:57:32;2.50;;;1.70;;
66487;SDS011;53304;54.550;18.526;2023-07-16T14:00:02;4.05;;;1.70;;
66487;SDS011;53304;54.550;18.526;2023-07-16T14:02:31;2.85;;;1.23;;
66487;SDS011;53304;54.550;18.526;2023-07-16T14:04:59;2.97;;;1.48;;
66487;SDS011;53304;54.550;18.526;2023-07-16T14:07:27;3.30;;;1.40;;
66487;SDS011;53304;54.550;18.526;2023-07-16T14:09:55;3.50;;;1.42;;
66487;SDS011;53304;54.550;18.526;2023-07-16T14:12:23;3.00;;;1.40;;
66487;SDS011;53304;54.550;18.526;2023-07-16T14:14:51;3.53;;;1.48;;
66487;SDS011;53304;54.550;18.526;2023-07-16T14:17:19;4.25;;;1.27;;
66487;SDS011;53304;54.550;18.526;2023-07-16T14:19:45;3.47;;;1.40;;
66487;SDS011;53304;54.550;18.526;2023-07-16T14:22:10;5.53;;;1.63;;
66487;SDS011;53304;54.550;18.526;2023-07-16T14:24:39;5.60;;;1.45;;
66487;SDS011;53304;54.550;18.526;2023-07-16T14:27:09;2.13;;;1.30;;
66487;SDS011;53304;54.550;18.526;2023-07-16T14:29:38;3.60;;;1.65;;
66487;SDS011;53304;54.550;18.526;2023-07-16T14:32:04;4.47;;;1.88;;
66487;SDS011;53304;54.550;18.526;2023-07-16T14:34:32;4.07;;;1.60;;
66487;SDS011;53304;54.550;18.526;2023-07-16T14:37:00;3.45;;;1.63;;
66487;SDS011;53304;54.550;18.526;2023-07-16T14:39:25;4.10;;;1.25;;
66487;SDS011;53304;54.550;18.526;2023-07-16T14:41:51;4.35;;;1.20;;
66487;SDS011;53304;54.550;18.526;2023-07-16T14:44:16;3.38;;;1.20;;
66487;SDS011;53304;54.550;18.526;2023-07-16T14:46:44;4.53;;;1.40;;
66487;SDS011;53304;54.550;18.526;2023-07-16T14:49:12;2.72;;;1.20;;
66487;SDS011;53304;54.550;18.526;2023-07-16T14:51:37;3.78;;;1.40;;